<?xml version='1.0' encoding='UTF-8'?><gpx version="1.1" creator="JPX - https://github.com/jenetics/jpx" xmlns="http://www.topografix.com/GPX/1/1"><trk><trkseg><trkpt lat="41.59695511758463" lon="12.646273222408675"><ele>83.14285714285714</ele><time>2026-04-28T16:09:13.996Z</time></trkpt><trkpt lat="41.597023078060744" lon="12.646296847000395"><ele>83.28571428571429</ele><time>2026-04-28T16:09:19.998Z</time></trkpt><trkpt lat="41.59708044478806" lon="12.646358567548665"><ele>83.42857142857143</ele><time>2026-04-28T16:09:23.998Z</time></trkpt><trkpt lat="41.59713999806383" lon="12.646410535007888"><ele>83.57142857142857</ele><time>2026-04-28T16:09:25.998Z</time></trkpt><trkpt lat="41.59719703526708" lon="12.646468933094788"><ele>83.71428571428572</ele><time>2026-04-28T16:09:31.999Z</time></trkpt><trkpt lat="41.597234253485304" lon="12.646541783666322"><ele>83.85714285714286</ele><time>2026-04-28T16:09:38.999Z</time></trkpt><trkpt lat="41.59727629627763" lon="12.646628951017043"><ele>84.0</ele><time>2026-04-28T16:09:43.999Z</time></trkpt><trkpt lat="41.59725527063738" lon="12.646714851974927"><ele>84.0</ele><time>2026-04-28T16:09:51.999Z</time></trkpt><trkpt lat="41.59721805591295" lon="12.646789526391878"><ele>84.0</ele><time>2026-04-28T16:09:56.999Z</time></trkpt><trkpt lat="41.597197991076335" lon="12.646887089292042"><ele>84.0</ele><time>2026-04-28T16:10:01.999Z</time></trkpt><trkpt lat="41.59719804240718" lon="12.646985256503969"><ele>84.0</ele><time>2026-04-28T16:10:07.999Z</time></trkpt><trkpt lat="41.597356916548875" lon="12.647013689983368"><ele>84.0</ele><time>2026-04-28T16:10:22.999Z</time></trkpt><trkpt lat="41.59741489821506" lon="12.647052961418472"><ele>84.0</ele><time>2026-04-28T16:10:27.999Z</time></trkpt><trkpt lat="41.597436482836315" lon="12.647150918532517"><ele>83.14285714285714</ele><time>2026-04-28T16:10:33.999Z</time></trkpt><trkpt lat="41.59739139693815" lon="12.64723116116143"><ele>82.28571428571428</ele><time>2026-04-28T16:10:38.999Z</time></trkpt><trkpt lat="41.597345331055095" lon="12.647304796485834"><ele>81.42857142857143</ele><time>2026-04-28T16:10:43.999Z</time></trkpt><trkpt lat="41.59737321532285" lon="12.647386531989563"><ele>80.57142857142857</ele><time>2026-04-28T16:10:49.999Z</time></trkpt><trkpt lat="41.59740939270536" lon="12.647477236030046"><ele>79.71428571428571</ele><time>2026-04-28T16:10:54.999Z</time></trkpt><trkpt lat="41.59743197677613" lon="12.647559159102139"><ele>78.85714285714286</ele><time>2026-04-28T16:11:03Z</time></trkpt><trkpt lat="41.59749711101656" lon="12.647565437664884"><ele>78.0</ele><time>2026-04-28T16:11:09Z</time></trkpt><trkpt lat="41.59754686188836" lon="12.647626560577875"><ele>78.0</ele><time>2026-04-28T16:11:14Z</time></trkpt><trkpt lat="41.59761021838488" lon="12.647675625686388"><ele>78.0</ele><time>2026-04-28T16:11:19Z</time></trkpt><trkpt lat="41.597690906371426" lon="12.647677669806171"><ele>78.0</ele><time>2026-04-28T16:11:27Z</time></trkpt><trkpt lat="41.59783813805116" lon="12.647669329111755"><ele>78.0</ele><time>2026-04-28T16:11:41Z</time></trkpt><trkpt lat="41.597909526959725" lon="12.64772851110584"><ele>78.0</ele><time>2026-04-28T16:11:46Z</time></trkpt><trkpt lat="41.59797369621921" lon="12.647750736695903"><ele>77.83333333333333</ele><time>2026-04-28T16:11:50.999Z</time></trkpt><trkpt lat="41.5980675470519" lon="12.647836042012015"><ele>77.66666666666667</ele><time>2026-04-28T16:12:01.999Z</time></trkpt><trkpt lat="41.59810774129282" lon="12.647916491314302"><ele>77.5</ele><time>2026-04-28T16:12:06.999Z</time></trkpt><trkpt lat="41.59817098170541" lon="12.647945264932487"><ele>77.33333333333334</ele><time>2026-04-28T16:12:13.999Z</time></trkpt><trkpt lat="41.59824385117473" lon="12.647962719166765"><ele>77.16666666666667</ele><time>2026-04-28T16:12:19.999Z</time></trkpt><trkpt lat="41.59828940204896" lon="12.648036231464554"><ele>77.0</ele><time>2026-04-28T16:12:26.999Z</time></trkpt><trkpt lat="41.5983268242682" lon="12.64811953210254"><ele>77.0</ele><time>2026-04-28T16:12:33.999Z</time></trkpt><trkpt lat="41.59837098064366" lon="12.648195509785824"><ele>77.0</ele><time>2026-04-28T16:12:39.999Z</time></trkpt><trkpt lat="41.59841362059714" lon="12.64825983397037"><ele>77.0</ele><time>2026-04-28T16:12:45.999Z</time></trkpt><trkpt lat="41.59845229546143" lon="12.648327086299112"><ele>77.0</ele><time>2026-04-28T16:12:51.999Z</time></trkpt><trkpt lat="41.59848972317342" lon="12.64839655278914"><ele>77.0</ele><time>2026-04-28T16:12:57.999Z</time></trkpt><trkpt lat="41.59853417746317" lon="12.648456219517419"><ele>77.0</ele><time>2026-04-28T16:13:03.999Z</time></trkpt><trkpt lat="41.59858512366718" lon="12.648515160203281"><ele>77.0</ele><time>2026-04-28T16:13:09Z</time></trkpt><trkpt lat="41.59880792696355" lon="12.648557116883358"><ele>77.6</ele><time>2026-04-28T16:13:31Z</time></trkpt><trkpt lat="41.59892634224353" lon="12.648558044892921"><ele>78.2</ele><time>2026-04-28T16:13:42Z</time></trkpt><trkpt lat="41.598992212882685" lon="12.64856485456277"><ele>78.8</ele><time>2026-04-28T16:13:49Z</time></trkpt><trkpt lat="41.599153426145214" lon="12.648576775562638"><ele>79.4</ele><time>2026-04-28T16:14:01Z</time></trkpt><trkpt lat="41.59921557036159" lon="12.64860832589306"><ele>80.0</ele><time>2026-04-28T16:14:05.999Z</time></trkpt><trkpt lat="41.599394414669895" lon="12.648633865629796"><ele>80.2</ele><time>2026-04-28T16:14:24.999Z</time></trkpt><trkpt lat="41.5995981424282" lon="12.648656871874042"><ele>80.4</ele><time>2026-04-28T16:14:40.999Z</time></trkpt><trkpt lat="41.59965797034223" lon="12.648695405412244"><ele>80.6</ele><time>2026-04-28T16:14:45.999Z</time></trkpt><trkpt lat="41.59972830545621" lon="12.648716500283669"><ele>80.8</ele><time>2026-04-28T16:14:53.999Z</time></trkpt><trkpt lat="41.599731846124136" lon="12.648814180560986"><ele>81.0</ele><time>2026-04-28T16:14:58.999Z</time></trkpt><trkpt lat="41.599728280644044" lon="12.648903345675384"><ele>81.0</ele><time>2026-04-28T16:15:03.999Z</time></trkpt><trkpt lat="41.59973426558693" lon="12.649003457720108"><ele>81.0</ele><time>2026-04-28T16:15:08.999Z</time></trkpt><trkpt lat="41.59973217196168" lon="12.649097585756467"><ele>81.0</ele><time>2026-04-28T16:15:17Z</time></trkpt><trkpt lat="41.59971852382473" lon="12.649185247694874"><ele>81.0</ele><time>2026-04-28T16:15:22Z</time></trkpt><trkpt lat="41.59970672941819" lon="12.649268822546778"><ele>81.0</ele><time>2026-04-28T16:15:25Z</time></trkpt><trkpt lat="41.59966977789927" lon="12.649341331850925"><ele>81.0</ele><time>2026-04-28T16:15:31Z</time></trkpt><trkpt lat="41.599652009980986" lon="12.649431400895525"><ele>81.0</ele><time>2026-04-28T16:15:38Z</time></trkpt><trkpt lat="41.59960087020619" lon="12.649492093689059"><ele>81.0</ele><time>2026-04-28T16:15:47Z</time></trkpt><trkpt lat="41.599560134972826" lon="12.649595929228509"><ele>81.0</ele><time>2026-04-28T16:15:54Z</time></trkpt><trkpt lat="41.5995226822516" lon="12.649684698635053"><ele>81.0</ele><time>2026-04-28T16:16:02Z</time></trkpt><trkpt lat="41.599488309960016" lon="12.649768306575252"><ele>81.0</ele><time>2026-04-28T16:16:08Z</time></trkpt><trkpt lat="41.59947223363881" lon="12.649850095862801"><ele>81.0</ele><time>2026-04-28T16:16:12.999Z</time></trkpt><trkpt lat="41.59944161886403" lon="12.649939310426321"><ele>81.0</ele><time>2026-04-28T16:16:19.999Z</time></trkpt><trkpt lat="41.599390146084936" lon="12.650029713408633"><ele>81.0</ele><time>2026-04-28T16:16:26.999Z</time></trkpt><trkpt lat="41.59935998565105" lon="12.650112913155851"><ele>81.0</ele><time>2026-04-28T16:16:35.999Z</time></trkpt><trkpt lat="41.59934259074005" lon="12.650202226365506"><ele>81.0</ele><time>2026-04-28T16:16:39.999Z</time></trkpt><trkpt lat="41.59928337704451" lon="12.650257778374264"><ele>81.0</ele><time>2026-04-28T16:16:47.999Z</time></trkpt><trkpt lat="41.59926224568174" lon="12.650361108655176"><ele>81.0</ele><time>2026-04-28T16:16:53.999Z</time></trkpt><trkpt lat="41.59923377799776" lon="12.650458323446177"><ele>81.0</ele><time>2026-04-28T16:17:00.999Z</time></trkpt><trkpt lat="41.59922244599812" lon="12.650548327856281"><ele>81.0</ele><time>2026-04-28T16:17:04.999Z</time></trkpt><trkpt lat="41.59916791786377" lon="12.650592933672595"><ele>81.0</ele><time>2026-04-28T16:17:10.999Z</time></trkpt><trkpt lat="41.59916082959783" lon="12.650683692265154"><ele>81.0</ele><time>2026-04-28T16:17:15.999Z</time></trkpt><trkpt lat="41.59917183741353" lon="12.650773557048954"><ele>81.0</ele><time>2026-04-28T16:17:23Z</time></trkpt><trkpt lat="41.599115738512346" lon="12.65083357500381"><ele>81.0</ele><time>2026-04-28T16:17:30Z</time></trkpt><trkpt lat="41.599077704429696" lon="12.650924480823882"><ele>81.0</ele><time>2026-04-28T16:17:37Z</time></trkpt><trkpt lat="41.59908440118787" lon="12.651009227369975"><ele>81.0</ele><time>2026-04-28T16:17:43Z</time></trkpt><trkpt lat="41.599039062742214" lon="12.651073422495353"><ele>81.0</ele><time>2026-04-28T16:17:49Z</time></trkpt><trkpt lat="41.59899411602075" lon="12.651135303080228"><ele>81.0</ele><time>2026-04-28T16:17:52Z</time></trkpt><trkpt lat="41.59896782586244" lon="12.651215316904665"><ele>81.0</ele><time>2026-04-28T16:17:57Z</time></trkpt><trkpt lat="41.598915344534525" lon="12.651265872458662"><ele>81.0</ele><time>2026-04-28T16:18:04Z</time></trkpt><trkpt lat="41.59889727941527" lon="12.65135153335264"><ele>81.0</ele><time>2026-04-28T16:18:08Z</time></trkpt><trkpt lat="41.59889929147348" lon="12.65143608788137"><ele>81.0</ele><time>2026-04-28T16:18:15Z</time></trkpt><trkpt lat="41.59883317284114" lon="12.651491290198672"><ele>81.0</ele><time>2026-04-28T16:18:21.999Z</time></trkpt><trkpt lat="41.59880184711972" lon="12.651578377458023"><ele>81.0</ele><time>2026-04-28T16:18:24.999Z</time></trkpt><trkpt lat="41.598820399876104" lon="12.65166266524452"><ele>81.0</ele><time>2026-04-28T16:18:28.999Z</time></trkpt><trkpt lat="41.59888058531803" lon="12.651746922766392"><ele>81.0</ele><time>2026-04-28T16:18:33.999Z</time></trkpt><trkpt lat="41.598926343703496" lon="12.65181102498394"><ele>81.0</ele><time>2026-04-28T16:18:50.999Z</time></trkpt><trkpt lat="41.5989961109648" lon="12.651840951295686"><ele>81.0</ele><time>2026-04-28T16:18:56.999Z</time></trkpt><trkpt lat="41.59908631491961" lon="12.65187327487078"><ele>81.0</ele><time>2026-04-28T16:19:00.999Z</time></trkpt><trkpt lat="41.599113793364666" lon="12.651949732829957"><ele>81.0</ele><time>2026-04-28T16:19:04.999Z</time></trkpt><trkpt lat="41.599164997175436" lon="12.652017880086316"><ele>81.33333333333333</ele><time>2026-04-28T16:19:08.999Z</time></trkpt><trkpt lat="41.59916036024444" lon="12.652127328253652"><ele>81.66666666666667</ele><time>2026-04-28T16:19:14.999Z</time></trkpt><trkpt lat="41.59921013082126" lon="12.652206519797351"><ele>82.0</ele><time>2026-04-28T16:19:17.999Z</time></trkpt><trkpt lat="41.59918179945423" lon="12.652307756241747"><ele>82.33333333333334</ele><time>2026-04-28T16:19:21.999Z</time></trkpt><trkpt lat="41.59914133718084" lon="12.652390913319795"><ele>82.66666666666667</ele><time>2026-04-28T16:19:25.999Z</time></trkpt><trkpt lat="41.599074619375756" lon="12.652456034622878"><ele>83.0</ele><time>2026-04-28T16:19:29Z</time></trkpt><trkpt lat="41.599016455684016" lon="12.65251459147825"><ele>83.0</ele><time>2026-04-28T16:19:32Z</time></trkpt><trkpt lat="41.598946340654265" lon="12.65253710822558"><ele>83.0</ele><time>2026-04-28T16:19:42Z</time></trkpt><trkpt lat="41.598884220890575" lon="12.6525672136568"><ele>83.0</ele><time>2026-04-28T16:19:51Z</time></trkpt><trkpt lat="41.59882256066574" lon="12.652615175242678"><ele>83.0</ele><time>2026-04-28T16:19:58Z</time></trkpt><trkpt lat="41.59876697735174" lon="12.652669503323448"><ele>83.0</ele><time>2026-04-28T16:20:01Z</time></trkpt><trkpt lat="41.598707326579" lon="12.65269989897691"><ele>83.0</ele><time>2026-04-28T16:20:09Z</time></trkpt><trkpt lat="41.598655665585454" lon="12.652748495694487"><ele>83.0</ele><time>2026-04-28T16:20:13Z</time></trkpt><trkpt lat="41.598586782359384" lon="12.652765465365285"><ele>83.28571428571428</ele><time>2026-04-28T16:20:17.999Z</time></trkpt><trkpt lat="41.598609928262135" lon="12.652851606279595"><ele>83.57142857142858</ele><time>2026-04-28T16:20:23.999Z</time></trkpt><trkpt lat="41.598635264638325" lon="12.652949084605348"><ele>83.85714285714286</ele><time>2026-04-28T16:20:29.999Z</time></trkpt><trkpt lat="41.598663441342815" lon="12.653032562246207"><ele>84.14285714285714</ele><time>2026-04-28T16:20:34.999Z</time></trkpt><trkpt lat="41.59868074858346" lon="12.653129720984726"><ele>84.42857142857142</ele><time>2026-04-28T16:20:39.999Z</time></trkpt><trkpt lat="41.59873845355961" lon="12.653171977551848"><ele>84.71428571428572</ele><time>2026-04-28T16:20:45.999Z</time></trkpt><trkpt lat="41.59876876311011" lon="12.653257206413409"><ele>85.0</ele><time>2026-04-28T16:20:52.999Z</time></trkpt><trkpt lat="41.59879975845386" lon="12.653349925494595"><ele>85.0</ele><time>2026-04-28T16:20:59.999Z</time></trkpt><trkpt lat="41.59883108346637" lon="12.653441127192579"><ele>85.0</ele><time>2026-04-28T16:21:05.999Z</time></trkpt><trkpt lat="41.598844841425404" lon="12.653524326019271"><ele>85.0</ele><time>2026-04-28T16:21:09.999Z</time></trkpt><trkpt lat="41.5988804099776" lon="12.653612102465868"><ele>85.0</ele><time>2026-04-28T16:21:17.999Z</time></trkpt><trkpt lat="41.59891631068192" lon="12.653687826261"><ele>85.0</ele><time>2026-04-28T16:21:23.999Z</time></trkpt><trkpt lat="41.59895301869002" lon="12.65376483846974"><ele>85.0</ele><time>2026-04-28T16:21:30.998Z</time></trkpt><trkpt lat="41.598983662785166" lon="12.653848600267926"><ele>85.0</ele><time>2026-04-28T16:21:36Z</time></trkpt><trkpt lat="41.59901193477884" lon="12.653945853904226"><ele>84.85714285714286</ele><time>2026-04-28T16:21:44Z</time></trkpt><trkpt lat="41.599040316038014" lon="12.654023220890881"><ele>84.71428571428571</ele><time>2026-04-28T16:21:49Z</time></trkpt><trkpt lat="41.59906880246803" lon="12.654116886671764"><ele>84.57142857142857</ele><time>2026-04-28T16:21:57Z</time></trkpt><trkpt lat="41.59909388494736" lon="12.654221499270001"><ele>84.42857142857143</ele><time>2026-04-28T16:22:03Z</time></trkpt><trkpt lat="41.59911933389121" lon="12.654303916671793"><ele>84.28571428571428</ele><time>2026-04-28T16:22:09Z</time></trkpt><trkpt lat="41.59916932527154" lon="12.65437232392847"><ele>84.14285714285714</ele><time>2026-04-28T16:22:16Z</time></trkpt><trkpt lat="41.599213455556026" lon="12.654444403009654"><ele>84.0</ele><time>2026-04-28T16:22:22Z</time></trkpt><trkpt lat="41.59924787295649" lon="12.65452217561948"><ele>83.71428571428571</ele><time>2026-04-28T16:22:27.999Z</time></trkpt><trkpt lat="41.599290325941496" lon="12.654589432483066"><ele>83.42857142857143</ele><time>2026-04-28T16:22:32.999Z</time></trkpt><trkpt lat="41.59931112522101" lon="12.654669967996663"><ele>83.14285714285714</ele><time>2026-04-28T16:22:38.999Z</time></trkpt><trkpt lat="41.59934512577577" lon="12.65474290032189"><ele>82.85714285714286</ele><time>2026-04-28T16:22:45.999Z</time></trkpt><trkpt lat="41.599362738185775" lon="12.654828348558485"><ele>82.57142857142857</ele><time>2026-04-28T16:22:51.999Z</time></trkpt><trkpt lat="41.59939102850148" lon="12.654910205691422"><ele>82.28571428571428</ele><time>2026-04-28T16:22:57.999Z</time></trkpt><trkpt lat="41.59941932864392" lon="12.654993003829386"><ele>82.0</ele><time>2026-04-28T16:23:03.999Z</time></trkpt><trkpt lat="41.59944744280596" lon="12.655076161990964"><ele>81.99999999999999</ele><time>2026-04-28T16:23:09.999Z</time></trkpt><trkpt lat="41.599483058960715" lon="12.655153614503867"><ele>82.0</ele><time>2026-04-28T16:23:15.999Z</time></trkpt><trkpt lat="41.599506094904115" lon="12.655236274411614"><ele>82.0</ele><time>2026-04-28T16:23:22.999Z</time></trkpt><trkpt lat="41.59953468316996" lon="12.655321806919169"><ele>82.0</ele><time>2026-04-28T16:23:27.999Z</time></trkpt><trkpt lat="41.59956234434179" lon="12.655397933833907"><ele>82.0</ele><time>2026-04-28T16:23:33.999Z</time></trkpt><trkpt lat="41.59958834111508" lon="12.655481762923094"><ele>81.99999999999999</ele><time>2026-04-28T16:23:40Z</time></trkpt><trkpt lat="41.59961583217818" lon="12.65555857160704"><ele>82.0</ele><time>2026-04-28T16:23:46Z</time></trkpt><trkpt lat="41.5996441142981" lon="12.655643565418757"><ele>81.57142857142857</ele><time>2026-04-28T16:23:52Z</time></trkpt><trkpt lat="41.5996744330596" lon="12.655727652714251"><ele>81.14285714285714</ele><time>2026-04-28T16:23:57Z</time></trkpt><trkpt lat="41.599717806532816" lon="12.65580436364063"><ele>80.71428571428572</ele><time>2026-04-28T16:24:03Z</time></trkpt><trkpt lat="41.59972749798767" lon="12.655893143364418"><ele>80.28571428571428</ele><time>2026-04-28T16:24:09Z</time></trkpt><trkpt lat="41.5997695129686" lon="12.655968140230222"><ele>79.85714285714286</ele><time>2026-04-28T16:24:15Z</time></trkpt><trkpt lat="41.599803403745014" lon="12.65604211885425"><ele>79.42857142857143</ele><time>2026-04-28T16:24:20Z</time></trkpt><trkpt lat="41.59982196797179" lon="12.656129707827514"><ele>79.0</ele><time>2026-04-28T16:24:25.999Z</time></trkpt><trkpt lat="41.599852057176385" lon="12.656205353962033"><ele>78.57142857142858</ele><time>2026-04-28T16:24:30.999Z</time></trkpt><trkpt lat="41.59986859425257" lon="12.656287001337171"><ele>78.14285714285714</ele><time>2026-04-28T16:24:36.999Z</time></trkpt><trkpt lat="41.5998349388368" lon="12.656367754300312"><ele>77.71428571428572</ele><time>2026-04-28T16:24:41.999Z</time></trkpt><trkpt lat="41.59980576702587" lon="12.656453824761652"><ele>77.28571428571429</ele><time>2026-04-28T16:24:47.999Z</time></trkpt><trkpt lat="41.59974788969772" lon="12.656516919926258"><ele>76.85714285714286</ele><time>2026-04-28T16:24:53.999Z</time></trkpt><trkpt lat="41.59969728365046" lon="12.656576414052072"><ele>76.42857142857143</ele><time>2026-04-28T16:24:58.999Z</time></trkpt><trkpt lat="41.599631806149546" lon="12.656607267752873"><ele>76.0</ele><time>2026-04-28T16:25:04.999Z</time></trkpt><trkpt lat="41.59956753017464" lon="12.656652906239707"><ele>76.0</ele><time>2026-04-28T16:25:10.999Z</time></trkpt><trkpt lat="41.59950698881671" lon="12.656700477619626"><ele>76.0</ele><time>2026-04-28T16:25:16.999Z</time></trkpt><trkpt lat="41.599447392895286" lon="12.656732559746773"><ele>76.0</ele><time>2026-04-28T16:25:22.999Z</time></trkpt><trkpt lat="41.599385289519304" lon="12.656777366603714"><ele>76.0</ele><time>2026-04-28T16:25:28.999Z</time></trkpt><trkpt lat="41.599330334382714" lon="12.656828511346012"><ele>76.0</ele><time>2026-04-28T16:25:34.999Z</time></trkpt><trkpt lat="41.59926516392851" lon="12.656877079144433"><ele>76.0</ele><time>2026-04-28T16:25:40.999Z</time></trkpt><trkpt lat="41.59920239511454" lon="12.656923956177694"><ele>76.0</ele><time>2026-04-28T16:25:47Z</time></trkpt><trkpt lat="41.59913917391386" lon="12.65697115626938"><ele>75.71428571428571</ele><time>2026-04-28T16:25:53Z</time></trkpt><trkpt lat="41.599079810521616" lon="12.657003216203917"><ele>75.42857142857143</ele><time>2026-04-28T16:25:59Z</time></trkpt><trkpt lat="41.59901775956479" lon="12.657045445226146"><ele>75.14285714285714</ele><time>2026-04-28T16:26:05Z</time></trkpt><trkpt lat="41.5989685659215" lon="12.657107971745551"><ele>74.85714285714286</ele><time>2026-04-28T16:26:10Z</time></trkpt><trkpt lat="41.598913492231084" lon="12.657177105766896"><ele>74.57142857142857</ele><time>2026-04-28T16:26:16Z</time></trkpt><trkpt lat="41.59885095323243" lon="12.657223542822255"><ele>74.28571428571429</ele><time>2026-04-28T16:26:22Z</time></trkpt><trkpt lat="41.59878770637504" lon="12.657269632179402"><ele>74.0</ele><time>2026-04-28T16:26:28Z</time></trkpt><trkpt lat="41.59871984017638" lon="12.65727874809452"><ele>73.85714285714286</ele><time>2026-04-28T16:26:33.999Z</time></trkpt><trkpt lat="41.598654476409855" lon="12.65730487672929"><ele>73.71428571428571</ele><time>2026-04-28T16:26:39.999Z</time></trkpt><trkpt lat="41.598589965197654" lon="12.657352510764463"><ele>73.57142857142857</ele><time>2026-04-28T16:26:46.999Z</time></trkpt><trkpt lat="41.59852597964433" lon="12.657397597653791"><ele>73.42857142857143</ele><time>2026-04-28T16:26:51.999Z</time></trkpt><trkpt lat="41.59847717453093" lon="12.657469347052583"><ele>73.28571428571429</ele><time>2026-04-28T16:26:58.999Z</time></trkpt><trkpt lat="41.598416856258844" lon="12.657530588966916"><ele>73.14285714285714</ele><time>2026-04-28T16:27:04.999Z</time></trkpt><trkpt lat="41.59834781249079" lon="12.65754030326242"><ele>73.0</ele><time>2026-04-28T16:27:10.999Z</time></trkpt><trkpt lat="41.598287630521426" lon="12.6575788103185"><ele>73.0</ele><time>2026-04-28T16:27:15.999Z</time></trkpt><trkpt lat="41.59822943648912" lon="12.657627901836756"><ele>73.0</ele><time>2026-04-28T16:27:23.999Z</time></trkpt><trkpt lat="41.59817261193238" lon="12.65767014308259"><ele>73.0</ele><time>2026-04-28T16:27:28.999Z</time></trkpt><trkpt lat="41.59811667267309" lon="12.657717131715318"><ele>73.0</ele><time>2026-04-28T16:27:34.999Z</time></trkpt><trkpt lat="41.598055398701064" lon="12.65776442551774"><ele>73.0</ele><time>2026-04-28T16:27:41.999Z</time></trkpt><trkpt lat="41.597996670480526" lon="12.657795234828402"><ele>73.0</ele><time>2026-04-28T16:27:46.999Z</time></trkpt><trkpt lat="41.5979316941011" lon="12.65785113253401"><ele>73.0</ele><time>2026-04-28T16:27:54Z</time></trkpt><trkpt lat="41.59787335934279" lon="12.65789523568524"><ele>72.42857142857143</ele><time>2026-04-28T16:28:00Z</time></trkpt><trkpt lat="41.59781833278739" lon="12.657936167966184"><ele>71.85714285714286</ele><time>2026-04-28T16:28:06Z</time></trkpt><trkpt lat="41.59776176681295" lon="12.657978474344604"><ele>71.28571428571429</ele><time>2026-04-28T16:28:11Z</time></trkpt><trkpt lat="41.59769848312871" lon="12.658030094101848"><ele>70.71428571428572</ele><time>2026-04-28T16:28:18Z</time></trkpt><trkpt lat="41.5976299115484" lon="12.658066156896043"><ele>70.14285714285715</ele><time>2026-04-28T16:28:25Z</time></trkpt><trkpt lat="41.59756606441408" lon="12.658116326890314"><ele>69.57142857142857</ele><time>2026-04-28T16:28:31Z</time></trkpt><trkpt lat="41.5975101725121" lon="12.658160502866075"><ele>69.0</ele><time>2026-04-28T16:28:37Z</time></trkpt><trkpt lat="41.59744578314423" lon="12.658205689717608"><ele>69.0</ele><time>2026-04-28T16:28:43Z</time></trkpt><trkpt lat="41.59739103342036" lon="12.658255503352922"><ele>69.0</ele><time>2026-04-28T16:28:48.999Z</time></trkpt><trkpt lat="41.59732530383484" lon="12.65829397160275"><ele>69.0</ele><time>2026-04-28T16:28:54.999Z</time></trkpt><trkpt lat="41.59726812194003" lon="12.65834934330952"><ele>69.0</ele><time>2026-04-28T16:28:59.999Z</time></trkpt><trkpt lat="41.59721350635189" lon="12.658405128582185"><ele>69.0</ele><time>2026-04-28T16:29:05.999Z</time></trkpt><trkpt lat="41.59716595974159" lon="12.658460664987093"><ele>69.0</ele><time>2026-04-28T16:29:09.999Z</time></trkpt><trkpt lat="41.59709630213418" lon="12.658469432835632"><ele>69.0</ele><time>2026-04-28T16:29:15.999Z</time></trkpt><trkpt lat="41.597029675848056" lon="12.658489404901111"><ele>69.0</ele><time>2026-04-28T16:29:21.999Z</time></trkpt><trkpt lat="41.596967851401985" lon="12.65851528936308"><ele>69.0</ele><time>2026-04-28T16:29:26.999Z</time></trkpt><trkpt lat="41.59689632034053" lon="12.6585462681267"><ele>69.0</ele><time>2026-04-28T16:29:32.999Z</time></trkpt><trkpt lat="41.59685522393574" lon="12.658612583347411"><ele>69.0</ele><time>2026-04-28T16:29:37.999Z</time></trkpt><trkpt lat="41.596788570732436" lon="12.658614396983857"><ele>69.0</ele><time>2026-04-28T16:29:42.999Z</time></trkpt><trkpt lat="41.59672559443473" lon="12.658631855886533"><ele>69.0</ele><time>2026-04-28T16:29:47.999Z</time></trkpt><trkpt lat="41.59665791254979" lon="12.658657389125343"><ele>69.0</ele><time>2026-04-28T16:29:54.999Z</time></trkpt><trkpt lat="41.59658866056776" lon="12.658676555555639"><ele>69.0</ele><time>2026-04-28T16:30:01Z</time></trkpt><trkpt lat="41.59652252785136" lon="12.658676155423514"><ele>69.0</ele><time>2026-04-28T16:30:07Z</time></trkpt><trkpt lat="41.59645730900337" lon="12.658679138585141"><ele>69.0</ele><time>2026-04-28T16:30:14Z</time></trkpt><trkpt lat="41.59638836404103" lon="12.658711702106329"><ele>69.0</ele><time>2026-04-28T16:30:19Z</time></trkpt><trkpt lat="41.59633037715879" lon="12.658756582607003"><ele>69.0</ele><time>2026-04-28T16:30:24Z</time></trkpt><trkpt lat="41.59626670564673" lon="12.6587996172342"><ele>69.0</ele><time>2026-04-28T16:30:29Z</time></trkpt><trkpt lat="41.5961982502237" lon="12.658768315522282"><ele>69.0</ele><time>2026-04-28T16:30:36Z</time></trkpt><trkpt lat="41.59613444077869" lon="12.658802074746271"><ele>69.0</ele><time>2026-04-28T16:30:42Z</time></trkpt><trkpt lat="41.59606596750778" lon="12.658831928846363"><ele>69.0</ele><time>2026-04-28T16:30:48Z</time></trkpt><trkpt lat="41.59599960566201" lon="12.658872246482426"><ele>69.0</ele><time>2026-04-28T16:30:53Z</time></trkpt><trkpt lat="41.59593491493534" lon="12.658856473048742"><ele>69.0</ele><time>2026-04-28T16:30:57.999Z</time></trkpt><trkpt lat="41.59586631659977" lon="12.658856775576268"><ele>69.0</ele><time>2026-04-28T16:31:04.999Z</time></trkpt><trkpt lat="41.595796416929076" lon="12.658874459066666"><ele>69.0</ele><time>2026-04-28T16:31:10.999Z</time></trkpt><trkpt lat="41.59573021532428" lon="12.65890044886783"><ele>69.0</ele><time>2026-04-28T16:31:16.999Z</time></trkpt><trkpt lat="41.59566159004287" lon="12.658920051866314"><ele>69.0</ele><time>2026-04-28T16:31:22.999Z</time></trkpt><trkpt lat="41.59560031138427" lon="12.658941672928606"><ele>69.0</ele><time>2026-04-28T16:31:28.999Z</time></trkpt><trkpt lat="41.59553675996492" lon="12.658966446047364"><ele>69.0</ele><time>2026-04-28T16:31:35.999Z</time></trkpt><trkpt lat="41.595473983024384" lon="12.658973406606236"><ele>69.0</ele><time>2026-04-28T16:31:40.999Z</time></trkpt><trkpt lat="41.59540638761307" lon="12.658987188515326"><ele>69.0</ele><time>2026-04-28T16:31:46.999Z</time></trkpt><trkpt lat="41.59533159305634" lon="12.65897808770908"><ele>69.0</ele><time>2026-04-28T16:31:53.999Z</time></trkpt><trkpt lat="41.59526222166513" lon="12.658990624193224"><ele>69.0</ele><time>2026-04-28T16:31:59.999Z</time></trkpt><trkpt lat="41.59519374257434" lon="12.659007772377324"><ele>69.0</ele><time>2026-04-28T16:32:06Z</time></trkpt><trkpt lat="41.595129422566515" lon="12.658996280581249"><ele>69.0</ele><time>2026-04-28T16:32:11Z</time></trkpt><trkpt lat="41.595071709944" lon="12.658924401360443"><ele>69.0</ele><time>2026-04-28T16:32:17Z</time></trkpt><trkpt lat="41.59499336412556" lon="12.658957096907038"><ele>69.0</ele><time>2026-04-28T16:32:27Z</time></trkpt><trkpt lat="41.59495784368589" lon="12.65903514253822"><ele>69.0</ele><time>2026-04-28T16:32:34Z</time></trkpt><trkpt lat="41.594904981922525" lon="12.659087529132076"><ele>69.0</ele><time>2026-04-28T16:32:41Z</time></trkpt><trkpt lat="41.59483560101443" lon="12.659058638997788"><ele>69.0</ele><time>2026-04-28T16:32:42Z</time></trkpt><trkpt lat="41.594783943751885" lon="12.659119794649925"><ele>69.0</ele><time>2026-04-28T16:32:51Z</time></trkpt><trkpt lat="41.594723634091125" lon="12.659158230359031"><ele>69.0</ele><time>2026-04-28T16:32:55.999Z</time></trkpt><trkpt lat="41.594670996183154" lon="12.659209735109613"><ele>69.0</ele><time>2026-04-28T16:33:00.999Z</time></trkpt><trkpt lat="41.59460212010802" lon="12.659215301466196"><ele>69.0</ele><time>2026-04-28T16:33:07.999Z</time></trkpt><trkpt lat="41.59453819416049" lon="12.659211411580532"><ele>69.0</ele><time>2026-04-28T16:33:12.999Z</time></trkpt><trkpt lat="41.59447402058518" lon="12.659239678803955"><ele>69.0</ele><time>2026-04-28T16:33:17.999Z</time></trkpt><trkpt lat="41.59439694326732" lon="12.659232737856005"><ele>69.0</ele><time>2026-04-28T16:33:24.999Z</time></trkpt><trkpt lat="41.594331002381026" lon="12.65926442541932"><ele>69.14285714285714</ele><time>2026-04-28T16:33:30.999Z</time></trkpt><trkpt lat="41.59427005588399" lon="12.659299497535082"><ele>69.28571428571429</ele><time>2026-04-28T16:33:35.999Z</time></trkpt><trkpt lat="41.594205834537426" lon="12.659316957842076"><ele>69.42857142857143</ele><time>2026-04-28T16:33:41.999Z</time></trkpt><trkpt lat="41.59414001923517" lon="12.659337614663201"><ele>69.57142857142857</ele><time>2026-04-28T16:33:47.999Z</time></trkpt><trkpt lat="41.59407583512451" lon="12.65932448175835"><ele>69.71428571428572</ele><time>2026-04-28T16:33:54.999Z</time></trkpt><trkpt lat="41.59400689248132" lon="12.659370186006266"><ele>69.85714285714286</ele><time>2026-04-28T16:34:00.999Z</time></trkpt><trkpt lat="41.593933302697025" lon="12.659380656574779"><ele>70.0</ele><time>2026-04-28T16:34:06.999Z</time></trkpt><trkpt lat="41.59387254155911" lon="12.659433136677196"><ele>70.0</ele><time>2026-04-28T16:34:13Z</time></trkpt><trkpt lat="41.59380680005955" lon="12.659448027794841"><ele>70.0</ele><time>2026-04-28T16:34:18Z</time></trkpt><trkpt lat="41.59373161517952" lon="12.659469608089717"><ele>70.0</ele><time>2026-04-28T16:34:23Z</time></trkpt><trkpt lat="41.5936671370057" lon="12.659484821371965"><ele>70.0</ele><time>2026-04-28T16:34:28Z</time></trkpt><trkpt lat="41.59361420591657" lon="12.659538699164852"><ele>70.0</ele><time>2026-04-28T16:34:34Z</time></trkpt><trkpt lat="41.593548882530285" lon="12.659539011918993"><ele>70.0</ele><time>2026-04-28T16:34:40Z</time></trkpt><trkpt lat="41.59347507259564" lon="12.659581724510915"><ele>70.0</ele><time>2026-04-28T16:34:46Z</time></trkpt><trkpt lat="41.59342028187308" lon="12.659625315783561"><ele>69.42857142857143</ele><time>2026-04-28T16:34:51Z</time></trkpt><trkpt lat="41.59335635859629" lon="12.659638202130322"><ele>68.85714285714286</ele><time>2026-04-28T16:34:56Z</time></trkpt><trkpt lat="41.59329022906245" lon="12.659695224761228"><ele>68.28571428571428</ele><time>2026-04-28T16:35:01.999Z</time></trkpt><trkpt lat="41.593216934622475" lon="12.659699613315897"><ele>67.71428571428572</ele><time>2026-04-28T16:35:08.999Z</time></trkpt><trkpt lat="41.59314888330907" lon="12.659726426534622"><ele>67.14285714285714</ele><time>2026-04-28T16:35:13.999Z</time></trkpt><trkpt lat="41.59307987895214" lon="12.6597339969159"><ele>66.57142857142857</ele><time>2026-04-28T16:35:19.999Z</time></trkpt><trkpt lat="41.59301375875062" lon="12.659734885063935"><ele>66.0</ele><time>2026-04-28T16:35:26.999Z</time></trkpt><trkpt lat="41.59294933904913" lon="12.659772271395463"><ele>66.0</ele><time>2026-04-28T16:35:31.999Z</time></trkpt><trkpt lat="41.59288762785634" lon="12.659795463083883"><ele>66.0</ele><time>2026-04-28T16:35:36.999Z</time></trkpt><trkpt lat="41.5928268151944" lon="12.659759721637721"><ele>66.0</ele><time>2026-04-28T16:35:41.999Z</time></trkpt><trkpt lat="41.59275908811831" lon="12.65977161275391"><ele>66.0</ele><time>2026-04-28T16:35:48.999Z</time></trkpt><trkpt lat="41.59269074076723" lon="12.659792548940379"><ele>66.0</ele><time>2026-04-28T16:35:54.999Z</time></trkpt><trkpt lat="41.592622639913074" lon="12.65981005320205"><ele>66.0</ele><time>2026-04-28T16:36:00.999Z</time></trkpt><trkpt lat="41.5925594871191" lon="12.659805561053847"><ele>66.0</ele><time>2026-04-28T16:36:05.999Z</time></trkpt><trkpt lat="41.59249728191862" lon="12.659841183967732"><ele>66.0</ele><time>2026-04-28T16:36:10.999Z</time></trkpt><trkpt lat="41.592433962182454" lon="12.659847049437099"><ele>66.0</ele><time>2026-04-28T16:36:17Z</time></trkpt><trkpt lat="41.59236726662894" lon="12.659862615240986"><ele>66.0</ele><time>2026-04-28T16:36:23Z</time></trkpt><trkpt lat="41.59229842498542" lon="12.659892372801016"><ele>66.0</ele><time>2026-04-28T16:36:29Z</time></trkpt><trkpt lat="41.59222136310223" lon="12.659896845837988"><ele>66.0</ele><time>2026-04-28T16:36:35Z</time></trkpt><trkpt lat="41.59215084217498" lon="12.659918986988684"><ele>66.0</ele><time>2026-04-28T16:36:42Z</time></trkpt><trkpt lat="41.592089055456256" lon="12.659954042027033"><ele>66.0</ele><time>2026-04-28T16:36:48Z</time></trkpt><trkpt lat="41.592019799309064" lon="12.659976102687093"><ele>66.14285714285714</ele><time>2026-04-28T16:36:54Z</time></trkpt><trkpt lat="41.591950862565476" lon="12.659996813248648"><ele>66.28571428571429</ele><time>2026-04-28T16:37:00Z</time></trkpt><trkpt lat="41.59187585595936" lon="12.66000700536589"><ele>66.42857142857143</ele><time>2026-04-28T16:37:05.999Z</time></trkpt><trkpt lat="41.591812137470605" lon="12.660011740611921"><ele>66.57142857142857</ele><time>2026-04-28T16:37:11.999Z</time></trkpt><trkpt lat="41.59173895570002" lon="12.660022997009666"><ele>66.71428571428571</ele><time>2026-04-28T16:37:17.999Z</time></trkpt><trkpt lat="41.59166685340156" lon="12.659997334263235"><ele>66.85714285714286</ele><time>2026-04-28T16:37:23.999Z</time></trkpt><trkpt lat="41.59161989570261" lon="12.659934889889513"><ele>67.0</ele><time>2026-04-28T16:37:28.999Z</time></trkpt><trkpt lat="41.591564602561064" lon="12.659875181577563"><ele>67.0</ele><time>2026-04-28T16:37:34.999Z</time></trkpt><trkpt lat="41.59151234844966" lon="12.659821914501334"><ele>67.0</ele><time>2026-04-28T16:37:39.999Z</time></trkpt><trkpt lat="41.591447955592955" lon="12.65977618805094"><ele>67.0</ele><time>2026-04-28T16:37:45.999Z</time></trkpt><trkpt lat="41.591383281065646" lon="12.659750242512446"><ele>67.0</ele><time>2026-04-28T16:37:51.999Z</time></trkpt><trkpt lat="41.59132423272014" lon="12.65968093708771"><ele>67.0</ele><time>2026-04-28T16:37:58.999Z</time></trkpt><trkpt lat="41.59126695223686" lon="12.659623347146521"><ele>67.0</ele><time>2026-04-28T16:38:04.999Z</time></trkpt><trkpt lat="41.591207251570125" lon="12.659568340378383"><ele>67.0</ele><time>2026-04-28T16:38:10.999Z</time></trkpt><trkpt lat="41.59114630604335" lon="12.65952704672427"><ele>66.85714285714286</ele><time>2026-04-28T16:38:16.998Z</time></trkpt><trkpt lat="41.59109954064221" lon="12.659462280368027"><ele>66.71428571428571</ele><time>2026-04-28T16:38:23Z</time></trkpt><trkpt lat="41.59104581314419" lon="12.659409768071278"><ele>66.57142857142857</ele><time>2026-04-28T16:38:29Z</time></trkpt><trkpt lat="41.59098726364862" lon="12.659353434525508"><ele>66.42857142857143</ele><time>2026-04-28T16:38:35Z</time></trkpt><trkpt lat="41.59096993037739" lon="12.659269745366334"><ele>66.28571428571429</ele><time>2026-04-28T16:38:40Z</time></trkpt><trkpt lat="41.59095907599673" lon="12.659179519287115"><ele>66.14285714285714</ele><time>2026-04-28T16:38:45Z</time></trkpt><trkpt lat="41.59094539845641" lon="12.659096111708985"><ele>66.0</ele><time>2026-04-28T16:38:51Z</time></trkpt><trkpt lat="41.59092194100885" lon="12.659001409586756"><ele>66.28571428571428</ele><time>2026-04-28T16:38:57Z</time></trkpt><trkpt lat="41.5909063975519" lon="12.658918505602308"><ele>66.57142857142857</ele><time>2026-04-28T16:39:03Z</time></trkpt><trkpt lat="41.59090697897077" lon="12.658817856553766"><ele>66.85714285714286</ele><time>2026-04-28T16:39:09Z</time></trkpt><trkpt lat="41.59089880993449" lon="12.658712931301604"><ele>67.14285714285714</ele><time>2026-04-28T16:39:15.999Z</time></trkpt><trkpt lat="41.590870313718135" lon="12.658623463063744"><ele>67.42857142857143</ele><time>2026-04-28T16:39:21.999Z</time></trkpt><trkpt lat="41.590865431569156" lon="12.658530995341241"><ele>67.71428571428571</ele><time>2026-04-28T16:39:28.999Z</time></trkpt><trkpt lat="41.590834712140804" lon="12.658447943196714"><ele>68.0</ele><time>2026-04-28T16:39:33.999Z</time></trkpt><trkpt lat="41.59081122499818" lon="12.658360617683615"><ele>68.28571428571428</ele><time>2026-04-28T16:39:39.999Z</time></trkpt><trkpt lat="41.590809876037056" lon="12.658268911313163"><ele>68.57142857142857</ele><time>2026-04-28T16:39:45.999Z</time></trkpt><trkpt lat="41.590781455097805" lon="12.65816966283954"><ele>68.85714285714286</ele><time>2026-04-28T16:39:51.999Z</time></trkpt><trkpt lat="41.59075717412634" lon="12.658081138008836"><ele>69.14285714285714</ele><time>2026-04-28T16:39:58.999Z</time></trkpt><trkpt lat="41.590738510463034" lon="12.658000007651887"><ele>69.42857142857143</ele><time>2026-04-28T16:40:04.999Z</time></trkpt><trkpt lat="41.590719422119335" lon="12.657919259883922"><ele>69.71428571428571</ele><time>2026-04-28T16:40:09.999Z</time></trkpt><trkpt lat="41.59069458063627" lon="12.65782849566026"><ele>70.0</ele><time>2026-04-28T16:40:14.999Z</time></trkpt><trkpt lat="41.590691195613964" lon="12.657742042140697"><ele>70.28571428571429</ele><time>2026-04-28T16:40:20.999Z</time></trkpt><trkpt lat="41.590689933246594" lon="12.657650879305738"><ele>70.57142857142857</ele><time>2026-04-28T16:40:28Z</time></trkpt><trkpt lat="41.590646689302766" lon="12.6575886283504"><ele>70.85714285714286</ele><time>2026-04-28T16:40:33Z</time></trkpt><trkpt lat="41.59063347801585" lon="12.657480637962"><ele>71.14285714285714</ele><time>2026-04-28T16:40:39Z</time></trkpt><trkpt lat="41.59062089243391" lon="12.657398154766826"><ele>71.42857142857143</ele><time>2026-04-28T16:40:44Z</time></trkpt><trkpt lat="41.590651146361814" lon="12.657315466760457"><ele>71.71428571428572</ele><time>2026-04-28T16:40:50Z</time></trkpt><trkpt lat="41.590621772316354" lon="12.657236317050366"><ele>72.0</ele><time>2026-04-28T16:40:57Z</time></trkpt><trkpt lat="41.59057282653081" lon="12.657167773488105"><ele>72.00000000000001</ele><time>2026-04-28T16:41:04Z</time></trkpt><trkpt lat="41.59052188006049" lon="12.65710306924137"><ele>72.0</ele><time>2026-04-28T16:41:12Z</time></trkpt><trkpt lat="41.59046608333553" lon="12.65705758719474"><ele>72.0</ele><time>2026-04-28T16:41:18Z</time></trkpt><trkpt lat="41.59039604525236" lon="12.657027077403795"><ele>72.0</ele><time>2026-04-28T16:41:24.999Z</time></trkpt><trkpt lat="41.590328114743315" lon="12.656979137576114"><ele>72.0</ele><time>2026-04-28T16:41:31.999Z</time></trkpt><trkpt lat="41.59033434630555" lon="12.65687204763585"><ele>72.00000000000001</ele><time>2026-04-28T16:41:36.999Z</time></trkpt><trkpt lat="41.59029620563109" lon="12.656797937601482"><ele>72.0</ele><time>2026-04-28T16:41:42.999Z</time></trkpt><trkpt lat="41.59024204181395" lon="12.656750758557559"><ele>71.71428571428572</ele><time>2026-04-28T16:41:50.999Z</time></trkpt><trkpt lat="41.59018817138888" lon="12.656701371696848"><ele>71.42857142857143</ele><time>2026-04-28T16:41:58.999Z</time></trkpt><trkpt lat="41.59012097076479" lon="12.65666066459489"><ele>71.14285714285714</ele><time>2026-04-28T16:42:05.999Z</time></trkpt><trkpt lat="41.59005663218144" lon="12.65661981723311"><ele>70.85714285714286</ele><time>2026-04-28T16:42:11.999Z</time></trkpt><trkpt lat="41.59006820293628" lon="12.656534431680681"><ele>70.57142857142857</ele><time>2026-04-28T16:42:15.999Z</time></trkpt><trkpt lat="41.590087530032996" lon="12.65644699339804"><ele>70.28571428571429</ele><time>2026-04-28T16:42:20.999Z</time></trkpt><trkpt lat="41.59011262780047" lon="12.656355054477602"><ele>70.0</ele><time>2026-04-28T16:42:26.999Z</time></trkpt><trkpt lat="41.590124747928186" lon="12.656259719536758"><ele>70.0</ele><time>2026-04-28T16:42:33Z</time></trkpt><trkpt lat="41.59014005532766" lon="12.656173828605917"><ele>70.0</ele><time>2026-04-28T16:42:39Z</time></trkpt><trkpt lat="41.590169066928866" lon="12.656094476568123"><ele>70.0</ele><time>2026-04-28T16:42:45Z</time></trkpt><trkpt lat="41.59018313363251" lon="12.655997293440635"><ele>70.0</ele><time>2026-04-28T16:42:52Z</time></trkpt><trkpt lat="41.59020522322742" lon="12.655907672728894"><ele>70.0</ele><time>2026-04-28T16:42:58Z</time></trkpt><trkpt lat="41.59024748441767" lon="12.655797029511222"><ele>70.0</ele><time>2026-04-28T16:43:02Z</time></trkpt><trkpt lat="41.590205615282336" lon="12.655709335125817"><ele>70.0</ele><time>2026-04-28T16:43:10Z</time></trkpt><trkpt lat="41.5901794352485" lon="12.655616551386919"><ele>70.14285714285714</ele><time>2026-04-28T16:43:16Z</time></trkpt><trkpt lat="41.590214659154995" lon="12.6555397744203"><ele>70.28571428571428</ele><time>2026-04-28T16:43:20.999Z</time></trkpt><trkpt lat="41.590252236750736" lon="12.655461010224816"><ele>70.42857142857143</ele><time>2026-04-28T16:43:27.999Z</time></trkpt><trkpt lat="41.590276734822254" lon="12.655382943512473"><ele>70.57142857142857</ele><time>2026-04-28T16:43:33.999Z</time></trkpt><trkpt lat="41.59033224442507" lon="12.655305835632907"><ele>70.71428571428571</ele><time>2026-04-28T16:43:39.999Z</time></trkpt><trkpt lat="41.59039751002542" lon="12.65527189167629"><ele>70.85714285714286</ele><time>2026-04-28T16:43:45.999Z</time></trkpt><trkpt lat="41.59041473603101" lon="12.655186522554922"><ele>71.0</ele><time>2026-04-28T16:43:50.999Z</time></trkpt><trkpt lat="41.590410566868414" lon="12.655093931180819"><ele>71.57142857142857</ele><time>2026-04-28T16:43:54.999Z</time></trkpt><trkpt lat="41.59042574436732" lon="12.654996646903486"><ele>72.14285714285714</ele><time>2026-04-28T16:44:00.999Z</time></trkpt><trkpt lat="41.59048003362155" lon="12.65493749736643"><ele>72.71428571428571</ele><time>2026-04-28T16:44:06.999Z</time></trkpt><trkpt lat="41.590527107825224" lon="12.65487485841528"><ele>73.28571428571428</ele><time>2026-04-28T16:44:12.999Z</time></trkpt><trkpt lat="41.59056851208557" lon="12.654792901920088"><ele>73.85714285714286</ele><time>2026-04-28T16:44:20.999Z</time></trkpt><trkpt lat="41.59061232539315" lon="12.654725852642095"><ele>74.42857142857142</ele><time>2026-04-28T16:44:25.999Z</time></trkpt><trkpt lat="41.59063262396119" lon="12.654609696252626"><ele>75.0</ele><time>2026-04-28T16:44:32.999Z</time></trkpt><trkpt lat="41.59067454757737" lon="12.654541458264973"><ele>75.0</ele><time>2026-04-28T16:44:39Z</time></trkpt><trkpt lat="41.59069841595414" lon="12.654463238882263"><ele>75.0</ele><time>2026-04-28T16:44:45Z</time></trkpt><trkpt lat="41.59071266437858" lon="12.654358147584745"><ele>75.0</ele><time>2026-04-28T16:44:50Z</time></trkpt><trkpt lat="41.590771661451726" lon="12.654305257329488"><ele>75.0</ele><time>2026-04-28T16:44:58Z</time></trkpt><trkpt lat="41.59088238773312" lon="12.65426562909628"><ele>75.0</ele><time>2026-04-28T16:45:07Z</time></trkpt><trkpt lat="41.59096764099851" lon="12.654204379782186"><ele>75.0</ele><time>2026-04-28T16:45:50.999Z</time></trkpt><trkpt lat="41.590992189905485" lon="12.653979571102797"><ele>75.25</ele><time>2026-04-28T16:46:05.999Z</time></trkpt><trkpt lat="41.59108846304138" lon="12.653826911378891"><ele>75.5</ele><time>2026-04-28T16:46:06.999Z</time></trkpt><trkpt lat="41.59100237149395" lon="12.653942382354492"><ele>75.75</ele><time>2026-04-28T16:46:12.999Z</time></trkpt><trkpt lat="41.59097593766907" lon="12.654092563890169"><ele>76.0</ele><time>2026-04-28T16:46:13.999Z</time></trkpt><trkpt lat="41.59095844257791" lon="12.654191153135761"><ele>76.0</ele><time>2026-04-28T16:46:14.999Z</time></trkpt><trkpt lat="41.590904780990016" lon="12.654248653695944"><ele>76.0</ele><time>2026-04-28T16:46:52Z</time></trkpt><trkpt lat="41.59091822421525" lon="12.654339408044443"><ele>76.0</ele><time>2026-04-28T16:46:55Z</time></trkpt><trkpt lat="41.59087879421344" lon="12.654462383031689"><ele>76.0</ele><time>2026-04-28T16:47:03Z</time></trkpt><trkpt lat="41.590902230525614" lon="12.654375344193129"><ele>76.0</ele><time>2026-04-28T16:47:19Z</time></trkpt><trkpt lat="41.59091227609598" lon="12.654251579658682"><ele>76.0</ele><time>2026-04-28T16:47:27Z</time></trkpt><trkpt lat="41.590915437354" lon="12.654152999854483"><ele>76.0</ele><time>2026-04-28T16:47:28Z</time></trkpt><trkpt lat="41.59097433770565" lon="12.654110436692028"><ele>76.0</ele><time>2026-04-28T16:47:32Z</time></trkpt><trkpt lat="41.59097188972182" lon="12.654212545097556"><ele>76.0</ele><time>2026-04-28T16:49:20Z</time></trkpt><trkpt lat="41.590970608110794" lon="12.654315608762298"><ele>76.0</ele><time>2026-04-28T16:49:24Z</time></trkpt><trkpt lat="41.59103811565989" lon="12.654280639579731"><ele>76.0</ele><time>2026-04-28T16:50:57Z</time></trkpt><trkpt lat="41.59108625795738" lon="12.654195191128071"><ele>76.0</ele><time>2026-04-28T16:51:01Z</time></trkpt><trkpt lat="41.59111216064815" lon="12.65410703270526"><ele>76.0</ele><time>2026-04-28T16:51:05Z</time></trkpt><trkpt lat="41.591122752468614" lon="12.654014290042923"><ele>76.0</ele><time>2026-04-28T16:51:10Z</time></trkpt><trkpt lat="41.591151673233355" lon="12.653925672534928"><ele>76.0</ele><time>2026-04-28T16:51:19Z</time></trkpt><trkpt lat="41.59117339565286" lon="12.653827461736329"><ele>76.0</ele><time>2026-04-28T16:51:24Z</time></trkpt><trkpt lat="41.59122510556282" lon="12.653760810770807"><ele>76.0</ele><time>2026-04-28T16:51:29Z</time></trkpt><trkpt lat="41.591240957483116" lon="12.65365668892074"><ele>76.0</ele><time>2026-04-28T16:51:35Z</time></trkpt><trkpt lat="41.591271257673235" lon="12.653564092123434"><ele>76.0</ele><time>2026-04-28T16:51:42Z</time></trkpt><trkpt lat="41.59130790235636" lon="12.653486560410819"><ele>76.0</ele><time>2026-04-28T16:51:47.999Z</time></trkpt><trkpt lat="41.591353917128075" lon="12.653427688154082"><ele>76.14285714285714</ele><time>2026-04-28T16:51:52.999Z</time></trkpt><trkpt lat="41.59137773230659" lon="12.65334853034429"><ele>76.28571428571429</ele><time>2026-04-28T16:51:57.999Z</time></trkpt><trkpt lat="41.5914208131464" lon="12.653269482052007"><ele>76.42857142857143</ele><time>2026-04-28T16:52:04.999Z</time></trkpt><trkpt lat="41.59143306186733" lon="12.653183520396745"><ele>76.57142857142857</ele><time>2026-04-28T16:52:10.999Z</time></trkpt><trkpt lat="41.59146618642532" lon="12.653105476486726"><ele>76.71428571428572</ele><time>2026-04-28T16:52:15.999Z</time></trkpt><trkpt lat="41.5915048672909" lon="12.653022806360983"><ele>76.85714285714286</ele><time>2026-04-28T16:52:20.999Z</time></trkpt><trkpt lat="41.59150630114745" lon="12.65293307113139"><ele>77.0</ele><time>2026-04-28T16:52:24.999Z</time></trkpt><trkpt lat="41.59152564287679" lon="12.652849905984212"><ele>77.0</ele><time>2026-04-28T16:52:29.999Z</time></trkpt><trkpt lat="41.59155271521892" lon="12.652759741365315"><ele>77.0</ele><time>2026-04-28T16:52:35.999Z</time></trkpt><trkpt lat="41.59157890080594" lon="12.652666842849966"><ele>77.0</ele><time>2026-04-28T16:52:42.999Z</time></trkpt><trkpt lat="41.591614957028945" lon="12.652593434548205"><ele>77.0</ele><time>2026-04-28T16:52:49.999Z</time></trkpt><trkpt lat="41.59164924593142" lon="12.652521213695357"><ele>77.0</ele><time>2026-04-28T16:52:54.999Z</time></trkpt><trkpt lat="41.59169209436173" lon="12.652426099162419"><ele>77.0</ele><time>2026-04-28T16:53:01.998Z</time></trkpt><trkpt lat="41.59172246454612" lon="12.65234103400629"><ele>77.0</ele><time>2026-04-28T16:53:07Z</time></trkpt><trkpt lat="41.591772300581454" lon="12.652289203484381"><ele>77.0</ele><time>2026-04-28T16:53:10Z</time></trkpt><trkpt lat="41.59182586759397" lon="12.652356247173282"><ele>77.0</ele><time>2026-04-28T16:53:17Z</time></trkpt><trkpt lat="41.59189068811578" lon="12.652388202707145"><ele>77.0</ele><time>2026-04-28T16:53:23Z</time></trkpt><trkpt lat="41.59194700449023" lon="12.652446099383223"><ele>77.0</ele><time>2026-04-28T16:53:28Z</time></trkpt><trkpt lat="41.59199295718536" lon="12.65251745820068"><ele>77.0</ele><time>2026-04-28T16:53:34Z</time></trkpt><trkpt lat="41.59207548863433" lon="12.65254823249536"><ele>77.0</ele><time>2026-04-28T16:53:40Z</time></trkpt><trkpt lat="41.592136373393366" lon="12.652570847512226"><ele>77.0</ele><time>2026-04-28T16:53:45Z</time></trkpt><trkpt lat="41.59221684928278" lon="12.6526000461079"><ele>76.83333333333334</ele><time>2026-04-28T16:53:51Z</time></trkpt><trkpt lat="41.59237513797226" lon="12.652575953900442"><ele>76.66666666666667</ele><time>2026-04-28T16:54:08.999Z</time></trkpt><trkpt lat="41.59243065262359" lon="12.652502918430667"><ele>76.5</ele><time>2026-04-28T16:54:18.999Z</time></trkpt><trkpt lat="41.592471433995584" lon="12.652433079668125"><ele>76.33333333333333</ele><time>2026-04-28T16:54:24.999Z</time></trkpt><trkpt lat="41.59252761681062" lon="12.65238583879647"><ele>76.16666666666666</ele><time>2026-04-28T16:54:30.999Z</time></trkpt><trkpt lat="41.59254750402626" lon="12.652303351419143"><ele>76.0</ele><time>2026-04-28T16:54:36.999Z</time></trkpt><trkpt lat="41.59259228875051" lon="12.652231466050264"><ele>76.0</ele><time>2026-04-28T16:54:42.999Z</time></trkpt><trkpt lat="41.592625559056344" lon="12.65213877733133"><ele>76.0</ele><time>2026-04-28T16:54:48.999Z</time></trkpt><trkpt lat="41.59264499113775" lon="12.652048349743204"><ele>76.0</ele><time>2026-04-28T16:54:53.999Z</time></trkpt><trkpt lat="41.59263985341152" lon="12.651956689690534"><ele>76.0</ele><time>2026-04-28T16:54:58.999Z</time></trkpt><trkpt lat="41.59265265144017" lon="12.651866532131134"><ele>76.0</ele><time>2026-04-28T16:55:05.999Z</time></trkpt><trkpt lat="41.592725113290264" lon="12.651842885240505"><ele>76.0</ele><time>2026-04-28T16:55:11Z</time></trkpt><trkpt lat="41.59279861664095" lon="12.651802305256396"><ele>76.0</ele><time>2026-04-28T16:55:15Z</time></trkpt><trkpt lat="41.592854303704364" lon="12.651746961172517"><ele>76.42857142857143</ele><time>2026-04-28T16:55:20Z</time></trkpt><trkpt lat="41.5928910652499" lon="12.651665376667141"><ele>76.85714285714286</ele><time>2026-04-28T16:55:26Z</time></trkpt><trkpt lat="41.59290747949691" lon="12.651574631781086"><ele>77.28571428571429</ele><time>2026-04-28T16:55:31Z</time></trkpt><trkpt lat="41.59296486616901" lon="12.651524614862842"><ele>77.71428571428572</ele><time>2026-04-28T16:55:36Z</time></trkpt><trkpt lat="41.59298916198509" lon="12.651428594420999"><ele>78.14285714285714</ele><time>2026-04-28T16:55:43Z</time></trkpt><trkpt lat="41.5929302064158" lon="12.651358483527703"><ele>78.57142857142858</ele><time>2026-04-28T16:55:47Z</time></trkpt><trkpt lat="41.59289593427625" lon="12.651281810898759"><ele>79.0</ele><time>2026-04-28T16:55:51Z</time></trkpt><trkpt lat="41.592912640321636" lon="12.651198320606982"><ele>79.00000000000001</ele><time>2026-04-28T16:55:55Z</time></trkpt><trkpt lat="41.59297549996007" lon="12.651155583998028"><ele>79.0</ele><time>2026-04-28T16:55:58.999Z</time></trkpt><trkpt lat="41.59303774709508" lon="12.651116244242896"><ele>79.0</ele><time>2026-04-28T16:56:02.999Z</time></trkpt><trkpt lat="41.59307036326849" lon="12.651042201308014"><ele>79.0</ele><time>2026-04-28T16:56:07.999Z</time></trkpt><trkpt lat="41.59310840394475" lon="12.650972500012667"><ele>79.0</ele><time>2026-04-28T16:56:12.999Z</time></trkpt><trkpt lat="41.59313290631552" lon="12.650891750947354"><ele>79.00000000000001</ele><time>2026-04-28T16:56:19.999Z</time></trkpt><trkpt lat="41.593110328517334" lon="12.65080651760176"><ele>79.0</ele><time>2026-04-28T16:56:23.999Z</time></trkpt><trkpt lat="41.59307427577711" lon="12.65071366927274"><ele>79.14285714285715</ele><time>2026-04-28T16:56:28.999Z</time></trkpt><trkpt lat="41.59311800702993" lon="12.650637731231974"><ele>79.28571428571429</ele><time>2026-04-28T16:56:34.999Z</time></trkpt><trkpt lat="41.59319995331214" lon="12.650586554201066"><ele>79.42857142857143</ele><time>2026-04-28T16:56:40.999Z</time></trkpt><trkpt lat="41.593261052857166" lon="12.650525079714301"><ele>79.57142857142858</ele><time>2026-04-28T16:56:45.999Z</time></trkpt><trkpt lat="41.59330893994143" lon="12.650457600439758"><ele>79.71428571428572</ele><time>2026-04-28T16:56:51.999Z</time></trkpt><trkpt lat="41.59335142269593" lon="12.650383997040223"><ele>79.85714285714286</ele><time>2026-04-28T16:56:56.999Z</time></trkpt><trkpt lat="41.59334582531781" lon="12.650296917844997"><ele>80.0</ele><time>2026-04-28T16:57:00.999Z</time></trkpt><trkpt lat="41.593367897409614" lon="12.650208781242544"><ele>80.14285714285714</ele><time>2026-04-28T16:57:05.999Z</time></trkpt><trkpt lat="41.59335572705058" lon="12.65011550409854"><ele>80.28571428571429</ele><time>2026-04-28T16:57:10.999Z</time></trkpt><trkpt lat="41.59334054674737" lon="12.650026533795744"><ele>80.42857142857143</ele><time>2026-04-28T16:57:16Z</time></trkpt><trkpt lat="41.59339903971265" lon="12.649969458580598"><ele>80.57142857142857</ele><time>2026-04-28T16:57:23Z</time></trkpt><trkpt lat="41.5934621012387" lon="12.649944166469613"><ele>80.71428571428571</ele><time>2026-04-28T16:57:26Z</time></trkpt><trkpt lat="41.59350861142805" lon="12.649868973138458"><ele>80.85714285714286</ele><time>2026-04-28T16:57:31Z</time></trkpt><trkpt lat="41.59355902527857" lon="12.649815066470895"><ele>81.0</ele><time>2026-04-28T16:57:35Z</time></trkpt><trkpt lat="41.5935320513034" lon="12.649735588253472"><ele>81.0</ele><time>2026-04-28T16:57:39Z</time></trkpt><trkpt lat="41.593617551246396" lon="12.649737521818274"><ele>81.0</ele><time>2026-04-28T16:57:44Z</time></trkpt><trkpt lat="41.59358123083975" lon="12.649648748844456"><ele>81.0</ele><time>2026-04-28T16:57:47Z</time></trkpt><trkpt lat="41.59362127505484" lon="12.649578069615144"><ele>81.0</ele><time>2026-04-28T16:57:52Z</time></trkpt><trkpt lat="41.593674005599404" lon="12.649527927781554"><ele>81.0</ele><time>2026-04-28T16:57:57Z</time></trkpt><trkpt lat="41.59363690366521" lon="12.649441162970279"><ele>81.0</ele><time>2026-04-28T16:58:03Z</time></trkpt><trkpt lat="41.59357080165965" lon="12.649386755720668"><ele>81.0</ele><time>2026-04-28T16:58:05Z</time></trkpt><trkpt lat="41.593508595378125" lon="12.64931716681697"><ele>80.8</ele><time>2026-04-28T16:58:09Z</time></trkpt><trkpt lat="41.5936895402797" lon="12.649348605995694"><ele>80.6</ele><time>2026-04-28T16:58:22.999Z</time></trkpt><trkpt lat="41.59374737240003" lon="12.649305753217572"><ele>80.4</ele><time>2026-04-28T16:58:26.999Z</time></trkpt><trkpt lat="41.59375648004427" lon="12.649217935174983"><ele>80.2</ele><time>2026-04-28T16:58:31.999Z</time></trkpt><trkpt lat="41.59376231554074" lon="12.64912978881774"><ele>80.0</ele><time>2026-04-28T16:58:36.999Z</time></trkpt><trkpt lat="41.5937181934072" lon="12.649054473063984"><ele>80.0</ele><time>2026-04-28T16:58:39.999Z</time></trkpt><trkpt lat="41.593682136385404" lon="12.648964186563031"><ele>80.0</ele><time>2026-04-28T16:58:43.999Z</time></trkpt><trkpt lat="41.59370174142074" lon="12.64887761151505"><ele>80.0</ele><time>2026-04-28T16:58:49.999Z</time></trkpt><trkpt lat="41.59374051406615" lon="12.648791442278322"><ele>80.0</ele><time>2026-04-28T16:58:54.999Z</time></trkpt><trkpt lat="41.593743881921334" lon="12.648705055647316"><ele>80.0</ele><time>2026-04-28T16:59:02.999Z</time></trkpt><trkpt lat="41.593791178064805" lon="12.648642286792603"><ele>80.0</ele><time>2026-04-28T16:59:07.999Z</time></trkpt><trkpt lat="41.59380628397669" lon="12.648537081244815"><ele>80.0</ele><time>2026-04-28T16:59:14.999Z</time></trkpt><trkpt lat="41.59386678437645" lon="12.648465363324554"><ele>80.0</ele><time>2026-04-28T16:59:19.999Z</time></trkpt><trkpt lat="41.59398336710304" lon="12.648468565247516"><ele>80.0</ele><time>2026-04-28T16:59:26Z</time></trkpt><trkpt lat="41.5940479162401" lon="12.648500337170768"><ele>80.0</ele><time>2026-04-28T16:59:32Z</time></trkpt><trkpt lat="41.5941016280051" lon="12.648552621210543"><ele>80.0</ele><time>2026-04-28T16:59:38Z</time></trkpt><trkpt lat="41.59417376567037" lon="12.64860369797119"><ele>80.0</ele><time>2026-04-28T16:59:44Z</time></trkpt><trkpt lat="41.594241898028265" lon="12.648630724317583"><ele>80.0</ele><time>2026-04-28T16:59:50Z</time></trkpt><trkpt lat="41.59429974882443" lon="12.648679536455495"><ele>80.0</ele><time>2026-04-28T16:59:59Z</time></trkpt><trkpt lat="41.59437521245013" lon="12.648684447908211"><ele>80.0</ele><time>2026-04-28T17:00:08Z</time></trkpt><trkpt lat="41.59442418414069" lon="12.648609546068514"><ele>80.0</ele><time>2026-04-28T17:00:13.999Z</time></trkpt><trkpt lat="41.594459302438445" lon="12.648528378841855"><ele>80.0</ele><time>2026-04-28T17:00:19.999Z</time></trkpt><trkpt lat="41.59448578094927" lon="12.648447776566709"><ele>80.0</ele><time>2026-04-28T17:00:25.999Z</time></trkpt><trkpt lat="41.59451427139959" lon="12.648358775208779"><ele>80.0</ele><time>2026-04-28T17:00:31.999Z</time></trkpt><trkpt lat="41.59454747319066" lon="12.648272413843035"><ele>80.0</ele><time>2026-04-28T17:00:36.999Z</time></trkpt><trkpt lat="41.59457751617564" lon="12.64818735065317"><ele>80.0</ele><time>2026-04-28T17:00:42.999Z</time></trkpt><trkpt lat="41.59453246035558" lon="12.648068727093637"><ele>80.0</ele><time>2026-04-28T17:01:05.999Z</time></trkpt><trkpt lat="41.594585981183826" lon="12.648151672227108"><ele>80.0</ele><time>2026-04-28T17:01:08.999Z</time></trkpt><trkpt lat="41.59451281137209" lon="12.648125581165642"><ele>80.0</ele><time>2026-04-28T17:01:09.999Z</time></trkpt><trkpt lat="41.59423252204912" lon="12.648140360300276"><ele>80.0</ele><time>2026-04-28T17:02:39.999Z</time></trkpt><trkpt lat="41.59441218256519" lon="12.648162483153508"><ele>80.0</ele><time>2026-04-28T17:02:40.999Z</time></trkpt><trkpt lat="41.59451968569189" lon="12.648162925406435"><ele>80.0</ele><time>2026-04-28T17:02:42.999Z</time></trkpt><trkpt lat="41.59458936528296" lon="12.648102207644557"><ele>80.0</ele><time>2026-04-28T17:02:49.999Z</time></trkpt><trkpt lat="41.594625275821144" lon="12.64800372525841"><ele>80.14285714285714</ele><time>2026-04-28T17:02:54.999Z</time></trkpt><trkpt lat="41.5946437745267" lon="12.64791031747296"><ele>80.28571428571429</ele><time>2026-04-28T17:03:00.999Z</time></trkpt><trkpt lat="41.5946618259708" lon="12.647829067719277"><ele>80.42857142857143</ele><time>2026-04-28T17:03:09.999Z</time></trkpt><trkpt lat="41.59465775320158" lon="12.647735968297487"><ele>80.57142857142857</ele><time>2026-04-28T17:03:16.999Z</time></trkpt><trkpt lat="41.594662750172425" lon="12.647649276313883"><ele>80.71428571428571</ele><time>2026-04-28T17:03:22.999Z</time></trkpt><trkpt lat="41.594682073392846" lon="12.647549796910727"><ele>80.85714285714286</ele><time>2026-04-28T17:03:31.998Z</time></trkpt><trkpt lat="41.59472059483722" lon="12.647460868311263"><ele>81.0</ele><time>2026-04-28T17:03:38Z</time></trkpt><trkpt lat="41.59476906807001" lon="12.64740155623876"><ele>81.28571428571429</ele><time>2026-04-28T17:03:43Z</time></trkpt><trkpt lat="41.594765615235914" lon="12.647294247671232"><ele>81.57142857142857</ele><time>2026-04-28T17:03:48Z</time></trkpt><trkpt lat="41.59475748236511" lon="12.647184926506684"><ele>81.85714285714286</ele><time>2026-04-28T17:03:54Z</time></trkpt><trkpt lat="41.59479570402099" lon="12.647113321390464"><ele>82.14285714285714</ele><time>2026-04-28T17:03:59Z</time></trkpt><trkpt lat="41.59484811046804" lon="12.647061319935776"><ele>82.42857142857143</ele><time>2026-04-28T17:04:04Z</time></trkpt><trkpt lat="41.594850126569135" lon="12.646949283767771"><ele>82.71428571428571</ele><time>2026-04-28T17:04:09Z</time></trkpt><trkpt lat="41.5948901941875" lon="12.646869221593192"><ele>83.0</ele><time>2026-04-28T17:04:15Z</time></trkpt><trkpt lat="41.594859026016486" lon="12.646754274449824"><ele>83.0</ele><time>2026-04-28T17:04:20Z</time></trkpt><trkpt lat="41.59493180565124" lon="12.646751796511602"><ele>83.0</ele><time>2026-04-28T17:04:25.999Z</time></trkpt><trkpt lat="41.59492897977899" lon="12.646660726056941"><ele>83.0</ele><time>2026-04-28T17:04:28.999Z</time></trkpt><trkpt lat="41.5950709559313" lon="12.64659245420835"><ele>83.0</ele><time>2026-04-28T17:04:38.999Z</time></trkpt><trkpt lat="41.595078423161105" lon="12.646500324290992"><ele>83.0</ele><time>2026-04-28T17:04:43.999Z</time></trkpt><trkpt lat="41.59505443533269" lon="12.64641245369212"><ele>83.0</ele><time>2026-04-28T17:04:47.999Z</time></trkpt><trkpt lat="41.5950867665082" lon="12.64633563019462"><ele>83.0</ele><time>2026-04-28T17:04:53.999Z</time></trkpt><trkpt lat="41.595110029218" lon="12.646248633668483"><ele>83.0</ele><time>2026-04-28T17:04:59.999Z</time></trkpt><trkpt lat="41.595156949621405" lon="12.646171425064859"><ele>83.0</ele><time>2026-04-28T17:05:06.999Z</time></trkpt><trkpt lat="41.59518269039602" lon="12.646071168145786"><ele>83.0</ele><time>2026-04-28T17:05:12.999Z</time></trkpt><trkpt lat="41.5952148508654" lon="12.645987399254736"><ele>83.0</ele><time>2026-04-28T17:05:18.999Z</time></trkpt><trkpt lat="41.595250362489175" lon="12.645908094462392"><ele>83.0</ele><time>2026-04-28T17:05:24.999Z</time></trkpt><trkpt lat="41.595277707829105" lon="12.645818825770831"><ele>83.0</ele><time>2026-04-28T17:05:29.999Z</time></trkpt><trkpt lat="41.59535105008251" lon="12.64580809551901"><ele>84.5</ele><time>2026-04-28T17:05:36.999Z</time></trkpt><trkpt lat="41.59542824880806" lon="12.64585233639999"><ele>86.0</ele><time>2026-04-28T17:05:42Z</time></trkpt><trkpt lat="41.59550509049747" lon="12.645882851044236"><ele>87.5</ele><time>2026-04-28T17:05:50Z</time></trkpt><trkpt lat="41.595585334955736" lon="12.645899619244426"><ele>89.0</ele><time>2026-04-28T17:05:56Z</time></trkpt><trkpt lat="41.59564832291687" lon="12.645954557675314"><ele>90.5</ele><time>2026-04-28T17:06:05Z</time></trkpt><trkpt lat="41.595704975246306" lon="12.645914683115967"><ele>92.0</ele><time>2026-04-28T17:06:10Z</time></trkpt><trkpt lat="41.59576741026972" lon="12.645854029798123"><ele>92.0</ele><time>2026-04-28T17:06:16Z</time></trkpt><trkpt lat="41.59609593691516" lon="12.645820081839771"><ele>92.0</ele><time>2026-04-28T17:06:44.999Z</time></trkpt><trkpt lat="41.59616638605266" lon="12.64581767392762"><ele>92.0</ele><time>2026-04-28T17:06:54.999Z</time></trkpt><trkpt lat="41.59622567175378" lon="12.645741024532942"><ele>83.0</ele><time>2026-04-28T17:07:00.999Z</time></trkpt><trkpt lat="41.59628353336427" lon="12.64570574378318"><ele>83.0</ele><time>2026-04-28T17:07:05.999Z</time></trkpt></trkseg></trk></gpx>